Time;durP1;ratioP1;P1;durP2;ratioP2;P2;SDS_P1;SDS_P2;PMS_P1;PMS_P2;Temp;Humidity;BMP_temperature;BMP_pressure;BME280_temperature;BME280_humidity;BME280_pressure;Samples;Min_cycle;Max_cycle;Signal;HPM_P1;HPM_P2
2022/09/25 10:36:39;;;;;;;0.63;0.40;;;;;;;;;;5141364;27;20175;-84
2022/09/25 10:39:29;;;;;;;0.30;0.30;;;16.10;99.90;;;;;;5101346;28;20034;-84
2022/09/25 10:42:32;;;;;;;4.88;0.65;;;;;;;;;;5115251;28;20072;-84
2022/09/25 10:45:25;;;;;;;0.77;0.50;;;;;;;;;;5115329;28;20050;-84
2022/09/25 10:51:59;;;;;;;0.65;0.50;;;;;;;;;;5130337;28;20440;-84
2022/09/25 10:54:44;;;;;;;0.60;0.40;;;;;;;;;;5116531;28;20034;-83
2022/09/25 10:57:37;;;;;;;4.50;0.77;;;;;;;;;;5130048;28;20053;-85
2022/09/25 11:00:25;;;;;;;0.88;0.60;;;;;;;;;;5114873;28;20070;-84
2022/09/25 11:03:20;;;;;;;3.28;1.00;;;;;;;;;;5130399;28;20496;-84
2022/09/25 11:06:17;;;;;;;0.52;0.50;;;;;;;;;;5130338;28;20042;-84
2022/09/25 11:09:18;;;;;;;5.68;1.52;;;;;;;;;;5101974;28;20081;-86
2022/09/25 11:12:13;;;;;;;0.65;0.60;;;;;;;;;;5119252;28;20034;-87
2022/09/25 11:15:04;;;;;;;0.43;0.43;;;16.20;99.90;;;;;;5114426;28;20039;-87
2022/09/25 11:17:51;;;;;;;0.52;0.52;;;;;;;;;;5129725;28;20066;-87
2022/09/25 11:20:36;;;;;;;1.13;0.60;;;;;;;;;;5114177;28;20035;-87
2022/09/25 11:23:34;;;;;;;0.57;0.50;;;;;;;;;;5114382;28;20112;-87
2022/09/25 11:26:21;;;;;;;0.50;0.50;;;;;;;;;;5103384;28;20085;-87
2022/09/25 11:29:10;;;;;;;0.40;0.40;;;;;;;;;;5099690;28;20079;-87
2022/09/25 11:32:04;;;;;;;0.70;0.60;;;;;;;;;;5129567;28;20390;-86
2022/09/25 11:35:05;;;;;;;0.40;0.40;;;;;;;;;;5129387;28;20568;-87
2022/09/25 11:37:50;;;;;;;0.63;0.50;;;;;;;;;;5116741;28;20035;-87
2022/09/25 11:41:15;;;;;;;0.40;0.40;;;;;;;;;;5114816;28;20498;-87
2022/09/25 11:44:05;;;;;;;1.55;0.70;;;;;;;;;;5113353;28;20074;-87
2022/09/25 11:46:55;;;;;;;1.35;0.65;;;;;;;;;;5120515;28;20507;-87
2022/09/25 11:49:40;;;;;;;0.75;0.68;;;;;;;;;;5095150;28;20035;-87
2022/09/25 11:52:43;;;;;;;0.93;0.50;;;;;;;;;;5095912;28;20042;-88
2022/09/25 11:55:54;;;;;;;1.67;0.45;;;;;;;;;;5100360;28;20046;-88
2022/09/25 11:58:52;;;;;;;1.27;0.50;;;;;;;;;;5115431;28;20042;-87
2022/09/25 12:01:44;;;;;;;1.20;0.55;;;;;;;;;;5086975;28;20100;-88
2022/09/25 12:04:29;;;;;;;0.45;0.45;;;;;;;;;;5115452;28;20118;-87
2022/09/25 12:07:28;;;;;;;0.47;0.47;;;;;;;;;;5100448;28;20169;-88
2022/09/25 12:10:13;;;;;;;0.45;0.45;;;;;;;;;;5100174;28;20038;-88
2022/09/25 12:13:05;;;;;;;1.08;0.60;;;;;;;;;;5115380;28;20510;-88
2022/09/25 12:15:49;;;;;;;0.55;0.50;;;;;;;;;;5099541;28;20100;-85
2022/09/25 12:18:59;;;;;;;0.43;0.40;;;;;;;;;;5099698;28;20497;-87
2022/09/25 12:22:04;;;;;;;0.30;0.30;;;;;;;;;;5114633;28;20055;-85
2022/09/25 12:24:56;;;;;;;0.40;0.40;;;;;;;;;;5114198;28;20084;-85
2022/09/25 12:28:08;;;;;;;0.43;0.43;;;16.10;99.90;;;;;;5087098;28;20437;-85
2022/09/25 12:31:02;;;;;;;0.43;0.43;;;;;;;;;;5114295;28;20035;-86
2022/09/25 12:34:15;;;;;;;0.95;0.60;;;16.30;99.90;;;;;;5114288;28;20038;-85
2022/09/25 12:37:07;;;;;;;0.50;0.50;;;;;;;;;;5114203;28;20047;-86
2022/09/25 12:39:57;;;;;;;0.40;0.40;;;;;;;;;;5098913;28;20047;-85
2022/09/25 12:42:44;;;;;;;1.27;0.63;;;;;;;;;;5114143;28;20030;-85
2022/09/25 12:45:44;;;;;;;0.50;0.50;;;;;;;;;;5114479;28;20395;-86
2022/09/25 12:48:42;;;;;;;0.60;0.50;;;;;;;;;;5114602;28;20085;-86
2022/09/25 12:51:41;;;;;;;0.50;0.50;;;;;;;;;;5102161;28;20038;-86
2022/09/25 12:54:37;;;;;;;0.55;0.55;;;18.60;99.90;;;;;;5114608;28;20042;-86
2022/09/25 12:57:21;;;;;;;0.50;0.50;;;;;;;;;;5098584;28;20084;-86
2022/09/25 13:00:14;;;;;;;0.75;0.50;;;;;;;;;;5114260;28;20144;-86
2022/09/25 13:03:03;;;;;;;1.85;0.43;;;;;;;;;;5098408;28;20400;-85
2022/09/25 13:06:08;;;;;;;0.38;0.38;;;;;;;;;;5098491;28;20043;-86
2022/09/25 13:09:00;;;;;;;0.40;0.40;;;;;;;;;;5113898;28;20055;-87
2022/09/25 13:11:45;;;;;;;1.40;0.47;;;;;;;;;;5085050;28;20073;-87
2022/09/25 13:14:33;;;;;;;1.80;0.43;;;;;;;;;;5083080;28;20039;-87
2022/09/25 13:17:18;;;;;;;0.65;0.50;;;;;;;;;;5104445;28;20510;-86
2022/09/25 13:20:21;;;;;;;0.90;0.47;;;;;;;;;;5113536;28;20072;-86
2022/09/25 13:23:19;;;;;;;0.52;0.50;;;;;;;;;;5098037;28;20034;-87
2022/09/25 13:26:15;;;;;;;0.45;0.40;;;;;;;;;;5089065;28;20624;-86
2022/09/25 13:29:03;;;;;;;1.92;0.47;;;;;;;;;;5098026;28;20035;-88
2022/09/25 13:31:48;;;;;;;1.10;0.50;;;;;;;;;;5083813;28;20038;-87
2022/09/25 13:34:35;;;;;;;1.88;0.57;;;;;;;;;;5098430;28;20074;-86
2022/09/25 13:37:23;;;;;;;0.40;0.40;;;;;;;;;;5098224;28;20035;-87
2022/09/25 13:43:24;;;;;;;1.25;0.47;;;;;;;;;;5113691;28;20090;-86
2022/09/25 13:46:22;;;;;;;0.82;0.47;;;;;;;;;;5098847;28;20081;-87
2022/09/25 13:49:31;;;;;;;0.47;0.40;;;;;;;;;;5112982;28;20221;-86
2022/09/25 13:52:29;;;;;;;0.40;0.40;;;;;;;;;;5099184;28;20073;-87
2022/09/25 13:55:18;;;;;;;1.55;0.50;;;;;;;;;;5087383;28;20034;-87
2022/09/25 13:58:02;;;;;;;1.45;0.65;;;;;;;;;;5098708;28;20434;-87
2022/09/25 14:00:57;;;;;;;2.13;0.40;;;;;;;;;;5098005;28;20054;-90
2022/09/25 14:03:49;;;;;;;0.88;0.60;;;;;;;;;;5098046;28;20379;-88
2022/09/25 14:06:35;;;;;;;1.85;0.50;;;;;;;;;;5098334;28;20062;-87
2022/09/25 14:09:24;;;;;;;0.77;0.40;;;;;;;;;;5112186;28;20043;-88
2022/09/25 14:12:16;;;;;;;1.35;0.60;;;;;;;;;;5103454;28;20034;-91
2022/09/25 14:15:06;;;;;;;1.50;0.50;;;;;;;;;;5097563;28;20395;-86
2022/09/25 14:17:52;;;;;;;2.95;0.70;;;;;;;;;;5112952;28;20081;-86
2022/09/25 14:20:37;;;;;;;2.78;0.68;;;;;;;;;;5097653;28;20403;-86
2022/09/25 14:23:27;;;;;;;1.38;0.50;;;;;;;;;;5112914;28;20034;-87
2022/09/25 14:26:21;;;;;;;0.57;0.50;;;;;;;;;;5112422;28;20606;-86
2022/09/25 14:29:13;;;;;;;0.88;0.60;;;;;;;;;;5112326;28;20092;-87
2022/09/25 14:32:01;;;;;;;0.55;0.40;;;;;;;;;;5096819;28;20038;-87
2022/09/25 14:34:55;;;;;;;0.50;0.50;;;;;;;;;;5112881;28;20063;-87
2022/09/25 14:37:59;;;;;;;0.47;0.47;;;;;;;;;;5098727;28;20520;-88
2022/09/25 14:40:44;;;;;;;0.98;0.40;;;;;;;;;;5112624;28;20498;-87
2022/09/25 14:43:40;;;;;;;1.13;0.55;;;;;;;;;;5097510;28;20074;-86
2022/09/25 14:46:25;;;;;;;3.53;0.40;;;;;;;;;;5097323;28;20088;-86
2022/09/25 14:49:18;;;;;;;0.55;0.47;;;;;;;;;;5096262;28;20047;-86
2022/09/25 14:52:14;;;;;;;1.55;0.45;;;;;;;;;;5088144;28;20502;-89
2022/09/25 14:55:00;;;;;;;3.50;0.68;;;;;;;;;;5090937;28;20042;-87
2022/09/25 14:57:46;;;;;;;1.20;0.40;;;;;;;;;;5091371;28;20105;-88
2022/09/25 15:00:33;;;;;;;0.30;0.30;;;;;;;;;;5095327;28;20088;-88
2022/09/25 15:03:20;;;;;;;0.50;0.50;;;;;;;;;;5099055;28;20541;-87
2022/09/25 15:06:05;;;;;;;1.90;0.50;;;;;;;;;;5111641;28;20046;-88
2022/09/25 15:08:49;;;;;;;0.90;0.55;;;;;;;;;;5093982;28;20047;-87
2022/09/25 15:11:41;;;;;;;0.70;0.60;;;;;;;;;;5081520;28;20556;-87
2022/09/25 15:14:28;;;;;;;0.40;0.40;;;;;;;;;;5071934;28;20059;-87
2022/09/25 15:17:22;;;;;;;0.88;0.50;;;;;;;;;;5072533;28;20188;-87
2022/09/25 15:20:11;;;;;;;0.50;0.50;;;;;;;;;;5097660;28;20039;-88
2022/09/25 15:22:57;;;;;;;0.50;0.50;;;;;;;;;;5115387;28;20039;-87
2022/09/25 15:25:44;;;;;;;2.17;0.70;;;;;;;;;;5097595;28;20043;-88
2022/09/25 15:28:30;;;;;;;0.40;0.40;;;;;;;;;;5100672;28;20508;-88
2022/09/25 15:31:14;;;;;;;1.02;0.40;;;;;;;;;;5100463;28;20043;-87
2022/09/25 15:34:12;;;;;;;0.63;0.60;;;;;;;;;;5100604;28;20054;-87
2022/09/25 15:37:28;;;;;;;1.40;0.60;;;;;;;;;;5101728;28;20039;-86
2022/09/25 15:40:22;;;;;;;0.55;0.45;;;;;;;;;;5092585;28;20501;-87
2022/09/25 15:43:14;;;;;;;0.45;0.40;;;;;;;;;;5089037;28;20119;-86
2022/09/25 15:46:08;;;;;;;2.40;0.50;;;;;;;;;;5100272;28;20152;-86
2022/09/25 15:48:59;;;;;;;1.08;0.60;;;;;;;;;;5100266;28;20057;-87
2022/09/25 15:51:49;;;;;;;1.00;0.63;;;;;;;;;;5115979;28;20042;-88
2022/09/25 15:54:44;;;;;;;0.57;0.57;;;;;;;;;;5100103;28;20066;-88
2022/09/25 15:57:47;;;;;;;1.02;0.60;;;;;;;;;;5099578;28;20035;-89
2022/09/25 16:06:44;;;;;;;2.33;0.70;;;;;;;;;;5102374;28;20058;-88
2022/09/25 16:09:31;;;;;;;2.13;0.60;;;;;;;;;;5099577;28;20093;-89
2022/09/25 16:12:27;;;;;;;2.40;0.80;;;;;;;;;;5090288;28;20609;-89
2022/09/25 16:15:27;;;;;;;0.57;0.57;;;;;;;;;;5099192;28;20038;-91
2022/09/25 16:18:11;;;;;;;4.22;0.70;;;;;;;;;;5105723;28;20042;-90
2022/09/25 16:21:08;;;;;;;1.58;0.50;;;;;;;;;;5095267;28;20066;-89
2022/09/25 16:24:03;;;;;;;0.82;0.80;;;;;;;;;;5097280;28;20043;-89
2022/09/25 16:26:53;;;;;;;1.40;0.50;;;;;;;;;;5105676;28;20435;-89
2022/09/25 16:29:38;;;;;;;0.52;0.52;;;;;;;;;;5114906;28;20119;-88
2022/09/25 16:32:26;;;;;;;3.40;0.68;;;;;;;;;;5114088;28;20054;-90
2022/09/25 16:35:19;;;;;;;1.35;0.60;;;;;;;;;;5099563;28;20411;-88
2022/09/25 16:38:04;;;;;;;0.55;0.50;;;;;;;;;;5114552;28;20042;-88
2022/09/25 16:41:01;;;;;;;0.63;0.60;;;;;;;;;;5106200;28;20506;-88
2022/09/25 16:43:46;;;;;;;1.08;0.70;;;;;;;;;;5108820;28;20034;-88
2022/09/25 16:46:30;;;;;;;1.20;0.70;;;;;;;;;;5113762;28;20047;-89
2022/09/25 16:49:18;;;;;;;0.50;0.50;;;;;;;;;;5073957;28;20055;-90
2022/09/25 16:52:05;;;;;;;0.90;0.65;;;;;;;;;;5114254;28;20415;-88
2022/09/25 16:54:52;;;;;;;0.50;0.50;;;;;;;;;;5098986;28;20042;-88
2022/09/25 16:57:37;;;;;;;0.50;0.50;;;;;;;;;;5094564;28;20663;-89
2022/09/25 17:00:24;;;;;;;1.05;0.73;;;;;;;;;;5098261;28;20392;-88
2022/09/25 17:03:10;;;;;;;1.13;0.75;;;;;;;;;;5114096;28;20038;-88
2022/09/25 17:05:56;;;;;;;1.15;0.70;;;;;;;;;;5093117;28;20053;-88
2022/09/25 17:08:43;;;;;;;0.50;0.50;;;;;;;;;;5113387;28;20131;-87
2022/09/25 17:11:28;;;;;;;0.93;0.70;;;;;;;;;;5113270;28;20034;-88
2022/09/25 17:14:32;;;;;;;0.70;0.60;;;;;;;;;;5098408;28;20039;-88
2022/09/25 17:17:19;;;;;;;2.47;0.60;;;;;;;;;;5113663;28;20039;-88
2022/09/25 17:20:04;;;;;;;0.75;0.70;;;;;;;;;;5113282;28;20518;-88
2022/09/25 17:22:49;;;;;;;0.60;0.60;;;;;;;;;;5113570;28;20490;-87
2022/09/25 17:25:44;;;;;;;1.85;0.68;;;;;;;;;;5107334;28;20066;-87
2022/09/25 17:28:31;;;;;;;1.88;0.80;;;;;;;;;;5113002;28;20038;-87
2022/09/25 17:31:20;;;;;;;1.90;0.70;;;;;;;;;;5113702;28;20430;-87
2022/09/25 17:34:09;;;;;;;1.48;0.90;;;;;;;;;;5096171;28;20445;-87
2022/09/25 17:36:55;;;;;;;1.60;0.75;;;;;;;;;;5091760;28;20047;-88
2022/09/25 17:39:39;;;;;;;1.73;1.00;;;;;;;;;;5090759;28;20035;-88
2022/09/25 17:42:25;;;;;;;3.20;0.88;;;;;;;;;;5096612;28;20062;-89
2022/09/25 17:45:24;;;;;;;2.35;1.10;;;;;;;;;;5097353;28;20059;-85
2022/09/25 17:48:09;;;;;;;2.17;1.10;;;;;;;;;;5089167;28;20034;-90
2022/09/25 17:50:57;;;;;;;1.88;1.00;;;;;;;;;;5113623;28;20046;-90
2022/09/25 17:53:47;;;;;;;2.03;0.93;;;;;;;;;;5060613;28;20062;-91
2022/09/25 17:56:41;;;;;;;4.32;1.25;;;;;;;;;;5097881;28;20051;-91
2022/09/25 17:59:25;;;;;;;2.00;0.90;;;;;;;;;;5096306;28;20084;-93
2022/09/25 18:02:15;;;;;;;1.65;0.90;;;;;;;;;;5085422;28;20039;-90
2022/09/25 18:05:19;;;;;;;2.35;1.20;;;;;;;;;;5087872;28;20457;-92
2022/09/25 18:08:07;;;;;;;3.63;1.70;;;;;;;;;;5092458;28;20128;-91
2022/09/25 18:11:02;;;;;;;3.47;1.50;;;;;;;;;;5074206;28;20506;-91
2022/09/25 18:13:47;;;;;;;2.45;1.30;;;;;;;;;;5108054;28;20111;-91
2022/09/25 18:16:34;;;;;;;5.13;1.33;;;;;;;;;;5079184;28;20047;-91
2022/09/25 18:22:43;;;;;;;4.72;3.70;;;;;;;;;;5087063;28;20051;-91
2022/09/25 18:25:30;;;;;;;4.70;2.03;;;;;;;;;;5077406;28;20104;-91
2022/09/25 18:28:19;;;;;;;3.38;1.98;;;;;;;;;;5093640;28;20042;-91
2022/09/25 18:31:03;;;;;;;6.63;3.33;;;;;;;;;;5074144;28;20157;-92
2022/09/25 18:33:53;;;;;;;4.57;1.98;;;;;;;;;;5073248;28;20043;-90
2022/09/25 18:36:38;;;;;;;5.30;3.25;;;;;;;;;;5059201;28;20046;-91
2022/09/25 18:39:23;;;;;;;7.20;5.45;;;;;;;;;;5049123;28;20458;-92
2022/09/25 18:42:11;;;;;;;4.03;2.50;;;;;;;;;;5062084;28;20750;-91
2022/09/25 18:44:55;;;;;;;5.10;1.83;;;;;;;;;;5067293;28;20404;-91
2022/09/25 18:47:41;;;;;;;3.50;1.75;;;;;;;;;;5067049;28;20075;-91
2022/09/25 18:50:27;;;;;;;3.20;1.95;;;;;;;;;;5067799;28;20043;-91
2022/09/25 18:53:12;;;;;;;4.95;1.80;;;;;;;;;;5059791;28;20040;-91
2022/09/25 18:55:59;;;;;;;2.70;1.90;;;;;;;;;;5050577;28;20055;-91
2022/09/25 18:58:46;;;;;;;2.42;1.60;;;;;;;;;;5072325;28;20048;-91
2022/09/25 19:01:33;;;;;;;1.77;1.00;;;;;;;;;;5072639;28;20063;-91
2022/09/25 19:04:20;;;;;;;3.35;1.73;;;;;;;;;;5065696;28;20566;-91
2022/09/25 19:07:09;;;;;;;2.88;1.70;;;;;;;;;;5058750;28;20039;-94
2022/09/25 19:10:08;;;;;;;4.18;2.50;;;;;;;;;;5057150;28;20052;-95
2022/09/25 19:13:25;;;;;;;;;;;;;;;;;;;;;
2022/09/25 19:16:16;;;;;;;4.00;1.38;;;;;;;;;;5068497;28;20035;-92
2022/09/25 19:19:34;;;;;;;;;;;;;;;;;;;;;
2022/09/25 19:22:30;;;;;;;2.10;1.30;;;;;;;;;;5069446;28;20055;-93
2022/09/25 19:25:14;;;;;;;5.03;1.60;;;;;;;;;;5054661;28;20052;-93
2022/09/25 19:28:12;;;;;;;;;;;;;;;;;;;;;
2022/09/25 19:31:05;;;;;;;2.42;1.45;;;;;;;;;;5075069;28;20103;-94
2022/09/25 19:37:33;;;;;;;;;;;;;;;;;;;;;
2022/09/25 19:41:23;;;;;;;3.30;1.20;;;;;;;;;;5105579;28;20031;-94
2022/09/25 19:44:01;;;;;;;;;;;;;;;;;;;;;
2022/09/25 19:47:06;;;;;;;2.55;1.17;;;;;;;;;;5104497;28;20042;-93
2022/09/25 19:50:07;;;;;;;1.67;1.10;;;;;;;;;;5094047;28;20066;-93
2022/09/25 19:53:20;;;;;;;;;;;;;;;;;;;;;
2022/09/25 19:59:17;;;;;;;2.85;1.40;;;;;;;;;;5097205;28;20415;-94
2022/09/25 20:02:18;;;;;;;;;;;;;;;;;;;;;
2022/09/25 20:05:14;;;;;;;;;;;;;;;;;;;;;
2022/09/25 20:08:17;;;;;;;;;;;;;;;;;;;;;
2022/09/25 20:11:17;;;;;;;4.28;1.70;;;;;;;;;;5100156;28;20112;-93
2022/09/25 20:14:53;;;;;;;;;;;;;;;;;;;;;
2022/09/25 20:17:41;;;;;;;5.15;1.52;;;;;;;;;;5116423;28;20091;-93
2022/09/25 20:20:45;;;;;;;6.20;1.77;;;;;;;;;;5081599;28;20055;-93
2022/09/25 20:23:48;;;;;;;7.28;1.50;;;;;;;;;;5100033;28;20038;-94
2022/09/25 20:26:35;;;;;;;2.03;1.40;;;;;;;;;;5086531;28;20051;-91
2022/09/25 20:29:22;;;;;;;5.38;1.48;;;;;;;;;;5101622;28;20035;-95
2022/09/25 20:32:07;;;;;;;2.95;1.30;;;;;;;;;;5106693;28;20076;-93
2022/09/25 20:34:58;;;;;;;3.13;1.13;;;;;;;;;;5085471;28;20062;-93
2022/09/25 20:37:46;;;;;;;2.50;1.10;;;;;;;;;;5095092;28;20035;-92
2022/09/25 20:40:31;;;;;;;6.85;1.30;;;;;;;;;;5080471;28;20116;-92
2022/09/25 20:43:16;;;;;;;1.83;1.27;;;;;;;;;;5092689;28;20059;-92
2022/09/25 20:46:08;;;;;;;4.55;1.27;;;;;;;;;;5097676;28;20115;-92
2022/09/25 20:49:05;;;;;;;2.28;1.20;;;;;;;;;;5099862;28;20031;-93
2022/09/25 20:51:52;;;;;;;2.72;1.45;;;;;;;;;;5100844;28;20085;-94
2022/09/25 20:54:41;;;;;;;3.88;1.40;;;;;;;;;;5115320;28;20031;-93
2022/09/25 20:57:29;;;;;;;2.65;1.30;;;;;;;;;;5089123;28;20542;-94
2022/09/25 21:00:17;;;;;;;3.65;1.20;;;;;;;;;;5094979;28;20070;-93
2022/09/25 21:03:04;;;;;;;3.42;1.58;;;;;;;;;;5113158;28;20404;-94
2022/09/25 21:05:52;;;;;;;2.63;1.10;;;;;;;;;;5115644;28;20449;-94
2022/09/25 21:08:41;;;;;;;2.35;1.10;;;;;;;;;;5086789;28;20047;-93
2022/09/25 21:11:28;;;;;;;3.45;1.45;;;;;;;;;;5085659;28;20569;-93
2022/09/25 21:14:23;;;;;;;3.83;1.50;;;;;;;;;;5088809;28;20545;-94
2022/09/25 21:17:28;;;;;;;2.67;1.33;;;;;;;;;;5086063;28;20078;-92
2022/09/25 21:20:22;;;;;;;2.60;1.23;;;;;;;;;;5098239;28;20467;-93
2022/09/25 21:23:07;;;;;;;2.97;1.10;;;;;;;;;;5085175;28;20489;-93
2022/09/25 21:25:51;;;;;;;2.60;1.50;;;;;;;;;;5079327;28;20446;-95
2022/09/25 21:28:41;;;;;;;2.47;1.25;;;;;;;;;;5082032;28;20071;-93
2022/09/25 21:31:30;;;;;;;2.63;1.35;;;;;;;;;;5088624;28;20085;-94
2022/09/25 21:34:27;;;;;;;3.17;1.23;;;;;;;;;;5094134;28;20031;-93
2022/09/25 21:37:14;;;;;;;2.92;1.30;;;;;;;;;;5078855;28;20039;-93
2022/09/25 21:40:01;;;;;;;2.03;1.10;;;;;;;;;;5089646;28;20034;-93
2022/09/25 21:42:46;;;;;;;2.08;1.17;;;;;;;;;;5101832;28;20074;-93
2022/09/25 21:45:33;;;;;;;1.50;0.93;;;;;;;;;;5086414;28;20062;-92
2022/09/25 21:48:22;;;;;;;3.75;1.33;;;;;;;;;;5102320;28;20066;-93
2022/09/25 21:51:17;;;;;;;1.50;0.82;;;;;;;;;;5094725;28;20039;-92
2022/09/25 21:54:07;;;;;;;2.47;1.02;;;;;;;;;;5085391;28;20053;-93
2022/09/25 21:56:54;;;;;;;2.40;1.30;;;;;;;;;;5099666;28;20034;-94
2022/09/25 21:59:40;;;;;;;1.70;1.00;;;;;;;;;;5079736;28;20051;-94
2022/09/25 22:02:28;;;;;;;3.58;1.10;;;;;;;;;;5092306;28;20078;-95
2022/09/25 22:05:15;;;;;;;3.45;1.10;;;;;;;;;;5089516;28;20055;-95
2022/09/25 22:08:00;;;;;;;1.77;0.95;;;;;;;;;;5094086;28;20031;-94
2022/09/25 22:10:53;;;;;;;3.60;1.20;;;;;;;;;;5091444;28;20088;-94
2022/09/25 22:13:39;;;;;;;3.10;1.03;;;;;;;;;;5098694;28;20122;-95
2022/09/25 22:16:34;;;;;;;3.05;0.95;;;;;;;;;;5083753;28;20049;-92
2022/09/25 22:19:28;;;;;;;2.78;1.23;;;;;;;;;;5098392;28;20043;-94
2022/09/25 22:22:16;;;;;;;1.65;0.90;;;;;;;;;;5098210;28;20160;-93
2022/09/25 22:25:03;;;;;;;5.45;0.85;;;;;;;;;;5080565;28;20039;-93
2022/09/25 22:27:48;;;;;;;2.30;1.10;;;;;;;;;;5087483;28;20043;-93
2022/09/25 22:30:42;;;;;;;1.75;1.00;;;;;;;;;;5094619;28;20039;-93
2022/09/25 22:33:30;;;;;;;2.08;1.27;;;;;;;;;;5106957;28;20038;-94
2022/09/25 22:36:22;;;;;;;2.17;1.38;;;;;;;;;;5077989;28;20067;-93
2022/09/25 22:39:07;;;;;;;1.40;0.90;;;;;;;;;;5097426;28;20491;-94
2022/09/25 22:41:52;;;;;;;2.05;1.02;;;;;;;;;;5101407;28;20112;-94
2022/09/25 22:44:37;;;;;;;1.50;1.00;;;;;;;;;;5086039;28;20046;-94
2022/09/25 22:47:21;;;;;;;2.33;1.13;;;;;;;;;;5098100;28;20038;-93
2022/09/25 22:50:06;;;;;;;1.80;0.90;;;;;;;;;;5092086;28;20031;-95
2022/09/25 22:52:54;;;;;;;1.50;0.93;;;;;;;;;;5083847;28;20027;-92
2022/09/25 22:55:39;;;;;;;2.72;1.00;;;;;;;;;;5097724;28;20039;-92
2022/09/25 22:58:25;;;;;;;4.63;1.02;;;;;;;;;;5083159;28;20042;-92
2022/09/25 23:01:12;;;;;;;4.88;1.70;;;;;;;;;;5083007;28;20033;-92
2022/09/25 23:04:01;;;;;;;1.73;1.02;;;;;;;;;;5085241;28;20055;-91
2022/09/25 23:06:53;;;;;;;2.92;1.10;;;;;;;;;;5089854;28;20085;-92
2022/09/25 23:09:46;;;;;;;1.92;1.15;;;;;;;;;;5077470;28;20034;-92
2022/09/25 23:12:30;;;;;;;1.83;0.90;;;;;;;;;;5077280;28;20112;-92
2022/09/25 23:15:20;;;;;;;1.80;1.15;;;;;;;;;;5097527;28;20092;-92
2022/09/25 23:18:14;;;;;;;3.28;0.95;;;;;;;;;;5098502;28;20043;-93
2022/09/25 23:20:59;;;;;;;1.10;0.70;;;;;;;;;;5097650;28;20034;-93
2022/09/25 23:23:46;;;;;;;1.50;0.90;;;;;;;;;;5090081;28;20043;-92
2022/09/25 23:26:31;;;;;;;2.17;1.08;;;;;;;;;;5076862;28;20089;-94
2022/09/25 23:29:22;;;;;;;1.90;0.80;;;;;;;;;;5099207;28;20042;-93
2022/09/25 23:32:09;;;;;;;1.70;1.10;;;;;;;;;;5096038;28;20505;-93
2022/09/25 23:34:56;;;;;;;2.67;1.10;;;;;;;;;;5097147;28;20089;-92
2022/09/25 23:37:43;;;;;;;2.33;1.00;;;;;;;;;;5083118;28;20031;-91
2022/09/25 23:40:32;;;;;;;2.30;1.10;;;;;;;;;;5097006;28;20080;-91
2022/09/25 23:43:25;;;;;;;2.10;1.20;;;;;;;;;;5099849;28;20042;-92
2022/09/25 23:46:12;;;;;;;4.47;1.13;;;;;;;;;;5080972;28;20050;-92
2022/09/25 23:49:00;;;;;;;1.65;1.02;;;;;;;;;;5095477;28;20035;-93
2022/09/25 23:51:48;;;;;;;3.28;1.20;;;;;;;;;;5091627;28;20085;-92
2022/09/25 23:54:33;;;;;;;1.80;1.10;;;;;;;;;;5096296;28;20416;-91
2022/09/25 23:57:17;;;;;;;2.35;1.20;;;;;;;;;;5094396;28;20043;-94
